createdAt,value
2018-12-03T00:01:06.686Z,99602.14
2018-12-03T00:03:36.427Z,99598.22
2018-12-03T00:06:05.549Z,99603.69
2018-12-03T00:08:34.552Z,99598.06
2018-12-03T00:11:03.549Z,99599.31
2018-12-03T00:13:32.798Z,99602.90
2018-12-03T00:16:02.312Z,99597.23
2018-12-03T00:18:31.539Z,99598.02
2018-12-03T00:21:00.794Z,99596.27
2018-12-03T00:23:30.129Z,99596.98
2018-12-03T00:25:59.137Z,99598.63
2018-12-03T00:28:28.171Z,99596.80
2018-12-03T00:30:57.398Z,99598.38
2018-12-03T00:33:26.417Z,99595.30
2018-12-03T00:35:55.717Z,99599.25
2018-12-03T00:38:24.843Z,99607.03
2018-12-03T00:40:53.815Z,99604.98
2018-12-03T00:43:22.816Z,99601.80
2018-12-03T00:45:51.790Z,99600.66
2018-12-03T00:48:20.993Z,99598.97
2018-12-03T00:50:50.049Z,99590.97
2018-12-03T00:53:19.261Z,99591.72
2018-12-03T00:55:48.315Z,99596.34
2018-12-03T00:58:17.382Z,99597.87
2018-12-03T01:00:46.352Z,99596.93
2018-12-03T01:03:15.924Z,99593.10
2018-12-03T01:05:44.965Z,99602.55
2018-12-03T01:08:14.173Z,99612.13
2018-12-03T01:10:43.218Z,99608.50
2018-12-03T01:13:12.321Z,99606.77
2018-12-03T01:15:41.770Z,99610.69
2018-12-03T01:18:10.959Z,99610.39
2018-12-03T01:20:39.952Z,99607.84
2018-12-03T01:23:09.147Z,99609.16
2018-12-03T01:25:38.349Z,99609.34
2018-12-03T01:28:07.611Z,99607.90
2018-12-03T01:30:36.573Z,99607.02
2018-12-03T01:33:05.765Z,99607.05
2018-12-03T01:35:34.824Z,99618.44
2018-12-03T01:38:03.910Z,99619.72
2018-12-03T01:40:32.922Z,99623.61
2018-12-03T01:43:02.375Z,99618.83
2018-12-03T01:45:31.336Z,99619.19
2018-12-03T01:48:06.892Z,99628.92
2018-12-03T01:50:35.860Z,99627.52
2018-12-03T01:53:04.937Z,99629.81
2018-12-03T01:55:33.932Z,99625.66
2018-12-03T01:58:02.950Z,99620.52
2018-12-03T02:00:32.312Z,99620.06
2018-12-03T02:03:01.611Z,99620.37
2018-12-03T02:05:30.655Z,99613.52
2018-12-03T02:07:59.690Z,99607.70
2018-12-03T02:10:28.760Z,99605.88
2018-12-03T02:12:57.760Z,99607.22
2018-12-03T02:15:26.793Z,99599.54
2018-12-03T02:17:55.832Z,99601.83
2018-12-03T02:20:24.832Z,99608.34
2018-12-03T02:22:53.904Z,99610.83
2018-12-03T02:25:22.921Z,99612.23
2018-12-03T02:27:51.930Z,99612.87
2018-12-03T02:30:20.939Z,99598.86
2018-12-03T02:32:50.042Z,99600.92
2018-12-03T02:35:18.995Z,99609.14
2018-12-03T02:37:48.344Z,99611.72
2018-12-03T02:40:17.826Z,99607.06
2018-12-03T02:42:46.801Z,99606.50
2018-12-03T02:45:15.848Z,99605.48
2018-12-03T02:47:44.856Z,99602.52
2018-12-03T02:50:14.700Z,99603.58
2018-12-03T02:52:43.767Z,99606.82
2018-12-03T02:55:13.314Z,99608.83
2018-12-03T02:57:42.349Z,99605.45
2018-12-03T03:00:14.668Z,99606.73
2018-12-03T03:02:44.112Z,99606.78
2018-12-03T03:05:15.225Z,99614.92
2018-12-03T03:07:44.719Z,99623.09
2018-12-03T03:10:15.066Z,99620.52
2018-12-03T03:12:44.094Z,99622.73
2018-12-03T03:15:14.986Z,99618.77
2018-12-03T03:17:44.392Z,99612.56
2018-12-03T03:20:14.070Z,99612.11
2018-12-03T03:22:43.064Z,99614.77
2018-12-03T03:25:12.411Z,99609.52
2018-12-03T03:27:41.433Z,99609.92
2018-12-03T03:30:14.619Z,99601.27
2018-12-03T03:32:43.949Z,99612.50
2018-12-03T03:35:14.728Z,99606.95
2018-12-03T03:37:43.790Z,99609.46
2018-12-03T03:40:16.147Z,99603.84
2018-12-03T03:42:47.185Z,99605.53
2018-12-03T03:45:23.209Z,99599.92
2018-12-03T03:47:52.243Z,99597.84
2018-12-03T03:50:21.291Z,99600.41
2018-12-03T03:52:50.518Z,99600.28
2018-12-03T03:55:19.525Z,99602.03
2018-12-03T03:57:48.776Z,99602.44
2018-12-03T04:00:17.754Z,99601.70
2018-12-03T04:02:46.952Z,99610.88
2018-12-03T04:05:16.472Z,99607.16
2018-12-03T04:07:46.778Z,99606.31
2018-12-03T04:10:16.567Z,99604.63
2018-12-03T04:12:46.656Z,99602.67
2018-12-03T04:15:16.650Z,99599.84
2018-12-03T04:17:45.701Z,99607.16
2018-12-03T04:20:19.469Z,99605.87
2018-12-03T04:22:52.493Z,99606.38
2018-12-03T04:25:21.478Z,99600.75
2018-12-03T04:27:50.490Z,99598.62
2018-12-03T04:30:21.857Z,99595.13
2018-12-03T04:32:52.169Z,99591.69
2018-12-03T04:35:21.537Z,99584.91
2018-12-03T04:37:50.797Z,99577.95
2018-12-03T04:40:20.083Z,99578.14
2018-12-03T04:42:49.074Z,99582.64
2018-12-03T04:45:19.063Z,99572.44
2018-12-03T04:47:49.614Z,99578.12
2018-12-03T04:50:21.306Z,99574.63
2018-12-03T04:52:50.363Z,99582.27
2018-12-03T04:55:20.517Z,99585.19
2018-12-03T04:57:49.750Z,99581.81
2018-12-03T05:00:20.249Z,99591.75
2018-12-03T05:02:53.085Z,99580.89
2018-12-03T05:05:22.142Z,99573.53
2018-12-03T05:07:52.694Z,99576.13
2018-12-03T05:10:22.583Z,99571.80
2018-12-03T05:12:53.115Z,99578.70
2018-12-03T05:15:22.389Z,99578.20
2018-12-03T05:17:51.458Z,99571.78
2018-12-03T05:20:24.301Z,99569.90
2018-12-03T05:22:53.442Z,99569.66
2018-12-03T05:25:22.641Z,99565.70
2018-12-03T05:27:51.643Z,99565.31
2018-12-03T05:30:20.700Z,99567.73
2018-12-03T05:32:50.253Z,99563.59
2018-12-03T05:35:26.799Z,99560.39
2018-12-03T05:37:56.357Z,99559.09
2018-12-03T05:40:28.390Z,99555.69
2018-12-03T05:42:57.637Z,99558.51
2018-12-03T05:45:26.678Z,99557.06
2018-12-03T05:47:55.995Z,99563.83
2018-12-03T05:50:25.231Z,99560.42
2018-12-03T05:52:54.250Z,99562.91
2018-12-03T05:55:23.273Z,99559.49
2018-12-03T05:57:52.829Z,99570.48
2018-12-03T06:00:23.464Z,99562.92
2018-12-03T06:02:52.527Z,99567.17
2018-12-03T06:05:21.542Z,99566.20
2018-12-03T06:07:50.792Z,99558.60
2018-12-03T06:10:21.527Z,99564.47
2018-12-03T06:12:50.651Z,99556.77
2018-12-03T06:15:21.532Z,99552.33
2018-12-03T06:17:52.657Z,99557.80
2018-12-03T06:20:23.110Z,99560.06
2018-12-03T06:22:53.848Z,99554.64
2018-12-03T06:25:27.727Z,99559.30
2018-12-03T06:27:57.259Z,99560.12
2018-12-03T06:30:27.407Z,99555.87
2018-12-03T06:32:56.416Z,99560.00
2018-12-03T06:35:25.416Z,99557.86
2018-12-03T06:37:54.484Z,99550.10
2018-12-03T06:40:27.762Z,99544.08
2018-12-03T06:42:56.866Z,99548.86
2018-12-03T06:45:26.662Z,99552.36
2018-12-03T06:48:03.791Z,99549.72
2018-12-03T06:50:32.834Z,99547.96
2018-12-03T06:53:01.874Z,99546.80
2018-12-03T06:55:30.981Z,99547.62
2018-12-03T06:58:00.113Z,99544.61
2018-12-03T07:00:29.390Z,99542.00
2018-12-03T07:02:58.424Z,99542.00
2018-12-03T07:05:27.814Z,99547.83
2018-12-03T07:07:59.169Z,99555.39
2018-12-03T07:10:28.216Z,99556.42
2018-12-03T07:13:02.895Z,99554.19
2018-12-03T07:15:35.895Z,99553.90
2018-12-03T07:18:06.221Z,99560.30
2018-12-03T07:20:35.258Z,99564.69
2018-12-03T07:23:04.712Z,99565.01
2018-12-03T07:25:33.720Z,99568.48
2018-12-03T07:28:02.738Z,99573.59
2018-12-03T07:30:31.853Z,99577.36
2018-12-03T07:33:00.866Z,99574.30
2018-12-03T07:35:29.893Z,99573.07
2018-12-03T07:37:59.040Z,99576.98
2018-12-03T07:40:29.617Z,99585.64
2018-12-03T07:42:58.697Z,99579.11
2018-12-03T07:45:27.960Z,99578.64
2018-12-03T07:47:57.191Z,99573.27
2018-12-03T07:50:26.258Z,99572.03
2018-12-03T07:52:55.329Z,99575.52
2018-12-03T07:55:25.801Z,99579.41
2018-12-03T07:57:59.817Z,99581.95
2018-12-03T08:00:32.182Z,99574.16
2018-12-03T08:03:01.209Z,99569.74
2018-12-03T08:05:30.759Z,99581.03
2018-12-03T08:07:59.850Z,99570.64
2018-12-03T08:10:28.900Z,99562.44
2018-12-03T08:12:58.021Z,99568.84
2018-12-03T08:15:27.046Z,99575.44
2018-12-03T08:18:01.337Z,99572.26
2018-12-03T08:20:49.215Z,99571.88
2018-12-03T08:23:57.332Z,99560.88
2018-12-03T08:26:26.524Z,99559.63
2018-12-03T08:28:55.960Z,99560.45
2018-12-03T08:31:25.204Z,99567.30
2018-12-03T08:33:54.325Z,99570.64
2018-12-03T08:36:23.450Z,99568.44
2018-12-03T08:38:52.713Z,99572.70
2018-12-03T08:41:21.765Z,99571.89
2018-12-03T08:43:51.056Z,99579.11
2018-12-03T08:46:21.129Z,99577.45
2018-12-03T08:48:50.407Z,99578.12
2018-12-03T08:51:19.451Z,99576.73
2018-12-03T08:53:49.484Z,99575.70
2018-12-03T08:56:18.560Z,99577.00
2018-12-03T08:58:47.634Z,99571.89
2018-12-03T09:01:19.737Z,99573.79
2018-12-03T09:03:54.750Z,99565.55
2018-12-03T09:06:23.947Z,99567.12
2018-12-03T09:08:53.543Z,99567.69
2018-12-03T09:11:24.063Z,99572.33
2018-12-03T09:13:53.434Z,99564.88
2018-12-03T09:16:22.645Z,99565.72
2018-12-03T09:18:51.975Z,99564.84
2018-12-03T09:21:21.342Z,99568.69
2018-12-03T09:23:50.802Z,99574.64
2018-12-03T09:26:19.919Z,99578.81
2018-12-03T09:28:49.034Z,99573.47
2018-12-03T09:31:20.410Z,99567.14
2018-12-03T09:33:56.324Z,99569.14
2018-12-03T09:36:27.013Z,99566.55
2018-12-03T09:39:02.510Z,99567.97
2018-12-03T09:41:31.720Z,99568.13
2018-12-03T09:44:00.857Z,99574.14
2018-12-03T09:46:31.208Z,99574.09
2018-12-03T09:49:01.896Z,99577.13
2018-12-03T09:51:33.269Z,99575.41
2018-12-03T09:54:04.791Z,99575.41
2018-12-03T09:56:39.424Z,99577.20
2018-12-03T09:59:14.476Z,99576.45
2018-12-03T10:01:44.925Z,99565.74
2018-12-03T10:04:52.537Z,99562.71
2018-12-03T10:07:21.566Z,99565.49
2018-12-03T10:09:50.594Z,99568.58
2018-12-03T10:12:19.602Z,99565.42
2018-12-03T10:14:48.593Z,99562.41
2018-12-03T10:17:17.873Z,99564.41
2018-12-03T10:19:50.938Z,99556.59
2018-12-03T10:22:19.962Z,99565.94
2018-12-03T10:24:49.042Z,99566.99
2018-12-03T10:27:18.055Z,99564.22
2018-12-03T10:29:47.066Z,99561.30
2018-12-03T10:32:18.709Z,99561.91
2018-12-03T10:34:47.802Z,99556.66
2018-12-03T10:37:18.770Z,99554.48
2018-12-03T10:39:48.001Z,99551.87
2018-12-03T10:42:18.624Z,99551.80
2018-12-03T10:44:48.053Z,99550.50
2018-12-03T10:47:17.052Z,99549.09
2018-12-03T10:49:46.093Z,99558.80
2018-12-03T10:52:20.305Z,99559.20
2018-12-03T10:54:49.726Z,99556.50
2018-12-03T10:57:18.767Z,99566.64
2018-12-03T10:59:54.070Z,99558.03
2018-12-03T11:02:33.313Z,99559.41
2018-12-03T11:05:07.558Z,99553.20
2018-12-03T11:07:36.818Z,99552.55
2018-12-03T11:10:07.858Z,99566.23
2018-12-03T11:12:37.278Z,99566.48
2018-12-03T11:15:14.658Z,99556.42
2018-12-03T11:17:43.982Z,99558.95
2018-12-03T11:20:12.959Z,99554.89
2018-12-03T11:22:42.205Z,99542.98
2018-12-03T11:25:14.596Z,99542.98
2018-12-03T11:27:46.889Z,99548.29
2018-12-03T11:30:16.167Z,99539.01
2018-12-03T11:32:45.213Z,99545.45
2018-12-03T11:35:14.577Z,99547.08
2018-12-03T11:37:45.662Z,99543.17
2018-12-03T11:40:25.421Z,99535.22
2018-12-03T11:42:55.483Z,99535.97
2018-12-03T11:45:24.466Z,99531.83
2018-12-03T11:47:53.485Z,99524.34
2018-12-03T11:50:22.475Z,99525.41
2018-12-03T11:53:54.297Z,99525.72
2018-12-03T11:56:23.312Z,99525.01
2018-12-03T11:58:52.317Z,99533.66
2018-12-03T12:01:21.569Z,99521.74
2018-12-03T12:03:50.707Z,99525.23
2018-12-03T12:06:19.753Z,99525.41
2018-12-03T12:08:48.885Z,99541.41
2018-12-03T12:11:18.156Z,99533.69
2018-12-03T12:13:47.198Z,99541.73
2018-12-03T12:16:16.254Z,99537.99
2018-12-03T12:18:45.346Z,99532.26
2018-12-03T12:21:14.353Z,99535.52
2018-12-03T12:23:43.369Z,99539.24
2018-12-03T12:26:12.459Z,99541.21
2018-12-03T12:28:41.648Z,99542.89
2018-12-03T12:31:10.669Z,99552.19
2018-12-03T12:33:39.862Z,99557.73
2018-12-03T12:36:08.853Z,99550.98
2018-12-03T12:38:37.849Z,99549.52
2018-12-03T12:41:06.838Z,99544.70
2018-12-03T12:43:36.017Z,99546.11
2018-12-03T12:46:09.405Z,99535.61
2018-12-03T12:48:38.425Z,99552.09
2018-12-03T12:51:07.429Z,99561.19
2018-12-03T12:53:36.404Z,99554.05
2018-12-03T12:56:05.862Z,99551.98
2018-12-03T12:58:34.892Z,99556.69
2018-12-03T13:01:03.890Z,99561.17
2018-12-03T13:03:32.949Z,99558.29
2018-12-03T13:06:02.016Z,99551.69
2018-12-03T13:08:31.021Z,99552.52
2018-12-03T13:11:00.392Z,99547.30
2018-12-03T13:13:30.353Z,99541.61
2018-12-03T13:15:59.481Z,99550.70
2018-12-03T13:18:28.891Z,99556.11
2018-12-03T13:20:58.233Z,99559.63
2018-12-03T13:23:27.457Z,99560.76
2018-12-03T13:25:56.740Z,99555.73
2018-12-03T13:28:26.054Z,99561.19
2018-12-03T13:30:55.285Z,99559.94
2018-12-03T13:33:27.582Z,99554.75
2018-12-03T13:35:56.559Z,99555.89
2018-12-03T13:38:26.084Z,99565.18
2018-12-03T13:40:55.179Z,99567.16
2018-12-03T13:43:24.164Z,99568.86
2018-12-03T13:45:53.473Z,99566.08
2018-12-03T13:48:22.505Z,99568.00
2018-12-03T13:50:51.565Z,99567.20
2018-12-03T13:53:20.563Z,99568.36
2018-12-03T13:55:49.617Z,99565.08
2018-12-03T13:58:18.683Z,99562.83
2018-12-03T14:00:48.572Z,99564.74
2018-12-03T14:03:22.972Z,99559.83
2018-12-03T14:05:57.573Z,99562.69
2018-12-03T14:08:48.476Z,99563.95
2018-12-03T14:11:31.193Z,99564.53
2018-12-03T14:14:17.841Z,99569.02
2018-12-03T14:17:58.304Z,99573.61
2018-12-03T14:20:33.817Z,99572.16
2018-12-03T14:23:07.476Z,99567.98
2018-12-03T14:25:36.829Z,99576.95
2018-12-03T14:28:06.290Z,99585.52
2018-12-03T14:30:35.544Z,99581.92
2018-12-03T14:33:04.758Z,99577.95
2018-12-03T14:35:33.836Z,99580.89
2018-12-03T14:38:02.942Z,99589.23
2018-12-03T14:41:34.633Z,99595.39
2018-12-03T14:44:03.758Z,99595.11
2018-12-03T14:46:32.848Z,99594.41
2018-12-03T14:49:01.886Z,99598.44
2018-12-03T14:51:30.973Z,99591.81
2018-12-03T14:54:00.005Z,99595.58
2018-12-03T14:56:29.025Z,99592.07
2018-12-03T14:58:58.052Z,99601.84
2018-12-03T15:01:27.125Z,99602.18
2018-12-03T15:03:56.630Z,99606.58
2018-12-03T15:06:25.719Z,99600.61
2018-12-03T15:08:55.991Z,99607.40
2018-12-03T15:11:25.744Z,99602.09
2018-12-03T15:13:54.805Z,99599.84
2018-12-03T15:16:23.882Z,99594.00
2018-12-03T15:18:52.954Z,99598.52
2018-12-03T15:21:22.063Z,99597.87
2018-12-03T15:23:51.609Z,99595.71
2018-12-03T15:26:20.754Z,99604.37
2018-12-03T15:28:49.748Z,99602.49
2018-12-03T15:31:18.790Z,99606.69
2018-12-03T15:33:47.834Z,99606.28
2018-12-03T15:36:16.910Z,99613.33
2018-12-03T15:38:46.010Z,99612.29
2018-12-03T15:41:15.342Z,99612.80
2018-12-03T15:43:44.858Z,99613.61
2018-12-03T15:46:14.432Z,99618.68
2018-12-03T15:48:44.274Z,99618.87
2018-12-03T15:51:13.396Z,99625.72
2018-12-03T15:53:42.613Z,99625.84
2018-12-03T15:56:11.674Z,99628.24
2018-12-03T15:58:40.803Z,99635.09
2018-12-03T16:01:14.456Z,99629.00
2018-12-03T16:03:40.336Z,99628.90
2018-12-03T16:06:10.058Z,99628.09
2018-12-03T16:08:39.457Z,99628.91
2018-12-03T16:11:08.719Z,99624.86
2018-12-03T16:13:37.899Z,99631.80
2018-12-03T16:16:07.135Z,99642.11
2018-12-03T16:18:36.769Z,99632.22
2018-12-03T16:21:05.776Z,99637.16
2018-12-03T16:23:35.356Z,99640.83
2018-12-03T16:26:04.462Z,99653.39
2018-12-03T16:28:34.011Z,99642.78
2018-12-03T16:31:03.363Z,99644.45
2018-12-03T16:33:32.411Z,99639.25
2018-12-03T16:36:01.412Z,99642.64
2018-12-03T16:38:30.633Z,99633.75
2018-12-03T16:40:59.687Z,99636.80
2018-12-03T16:43:28.711Z,99634.41
2018-12-03T16:45:57.776Z,99636.34
2018-12-03T16:48:26.881Z,99637.48
2018-12-03T16:50:56.430Z,99639.22
2018-12-03T16:53:25.566Z,99636.34
2018-12-03T16:55:54.857Z,99644.05
2018-12-03T16:58:24.300Z,99645.22
2018-12-03T17:00:53.786Z,99640.88
2018-12-03T17:03:22.812Z,99642.73
2018-12-03T17:05:51.966Z,99643.45
2018-12-03T17:08:21.112Z,99643.52
2018-12-03T17:10:50.132Z,99648.42
2018-12-03T17:13:19.416Z,99646.18
2018-12-03T17:15:48.761Z,99643.59
2018-12-03T17:18:32.768Z,99644.85
2018-12-03T17:21:10.792Z,99633.35
2018-12-03T17:24:16.860Z,99633.86
2018-12-03T17:26:46.025Z,99643.02
2018-12-03T17:29:15.077Z,99645.95
2018-12-03T17:31:44.366Z,99659.66
2018-12-03T17:34:13.549Z,99663.00
2018-12-03T17:36:42.604Z,99666.00
2018-12-03T17:39:11.659Z,99672.34
2018-12-03T17:41:40.686Z,99670.52
2018-12-03T17:44:09.780Z,99668.89
2018-12-03T17:46:39.029Z,99664.56
2018-12-03T17:49:08.009Z,99676.11
2018-12-03T17:51:37.039Z,99668.24
2018-12-03T17:54:06.064Z,99664.39
2018-12-03T17:56:35.546Z,99668.74
2018-12-03T17:59:05.025Z,99662.62
2018-12-03T18:01:34.195Z,99652.80
2018-12-03T18:04:03.209Z,99651.12
2018-12-03T18:06:32.234Z,99651.67
2018-12-03T18:09:01.582Z,99648.57
2018-12-03T18:11:31.464Z,99647.48
2018-12-03T18:14:00.777Z,99644.24
2018-12-03T18:16:30.028Z,99650.77
2018-12-03T18:18:59.312Z,99650.02
2018-12-03T18:21:28.378Z,99641.02
2018-12-03T18:23:57.391Z,99643.77
2018-12-03T18:26:26.601Z,99640.29
2018-12-03T18:28:55.655Z,99645.50
2018-12-03T18:31:24.674Z,99650.17
2018-12-03T18:33:53.681Z,99649.73
2018-12-03T18:36:22.682Z,99655.80
2018-12-03T18:38:51.739Z,99659.31
2018-12-03T18:41:20.744Z,99658.44
2018-12-03T18:43:49.731Z,99655.80
2018-12-03T18:46:18.863Z,99650.02
2018-12-03T18:48:52.421Z,99642.52
2018-12-03T18:51:21.514Z,99639.76
2018-12-03T18:53:50.610Z,99645.26
2018-12-03T18:56:19.683Z,99647.34
2018-12-03T18:59:04.202Z,99649.47
2018-12-03T19:01:33.324Z,99649.34
2018-12-03T19:04:02.489Z,99644.92
2018-12-03T19:06:33.346Z,99634.97
2018-12-03T19:09:02.391Z,99639.18
2018-12-03T19:11:32.951Z,99637.56
2018-12-03T19:14:02.108Z,99635.94
2018-12-03T19:16:31.960Z,99637.29
2018-12-03T19:19:01.085Z,99635.14
2018-12-03T19:21:30.269Z,99638.06
2018-12-03T19:23:59.698Z,99635.98
2018-12-03T19:26:28.779Z,99642.45
2018-12-03T19:28:57.774Z,99642.59
2018-12-03T19:31:26.847Z,99641.66
2018-12-03T19:33:56.182Z,99641.72
2018-12-03T19:36:25.254Z,99646.83
2018-12-03T19:38:54.408Z,99641.61
2018-12-03T19:41:23.672Z,99645.97
2018-12-03T19:43:52.831Z,99636.53
2018-12-03T19:46:21.859Z,99637.84
2018-12-03T19:48:51.110Z,99643.00
2018-12-03T19:51:20.147Z,99640.88
2018-12-03T19:53:49.332Z,99643.15
2018-12-03T19:56:18.417Z,99644.44
2018-12-03T19:58:50.854Z,99641.20
2018-12-03T20:01:20.113Z,99648.16
2018-12-03T20:03:49.421Z,99648.33
2018-12-03T20:06:18.824Z,99653.43
2018-12-03T20:08:48.139Z,99654.62
2018-12-03T20:11:17.342Z,99658.65
2018-12-03T20:13:46.429Z,99659.94
2018-12-03T20:16:15.539Z,99660.04
2018-12-03T20:18:44.630Z,99661.23
2018-12-03T20:21:23.611Z,99666.80
2018-12-03T20:23:58.786Z,99658.65
2018-12-03T20:26:47.112Z,99654.38
2018-12-03T20:30:02.557Z,99653.19
2018-12-03T20:32:49.819Z,99642.47
2018-12-03T20:35:25.888Z,99645.50
2018-12-03T20:38:07.386Z,99644.61
2018-12-03T20:41:49.370Z,99640.33
2018-12-03T20:44:43.164Z,99638.14
2018-12-03T20:47:19.921Z,99640.73
2018-12-03T20:51:04.117Z,99642.92
2018-12-03T20:53:43.272Z,99645.25
2018-12-03T20:56:14.173Z,99649.42
2018-12-03T20:58:43.735Z,99650.61
2018-12-03T21:01:13.860Z,99637.65
2018-12-03T21:03:43.153Z,99630.30
2018-12-03T21:06:12.481Z,99636.35
2018-12-03T21:08:41.747Z,99634.67
2018-12-03T21:11:11.122Z,99631.69
2018-12-03T21:13:40.409Z,99640.33
2018-12-03T21:16:09.693Z,99639.77
2018-12-03T21:18:38.930Z,99639.77
2018-12-03T21:21:10.624Z,99639.84
2018-12-03T21:23:39.818Z,99632.22
2018-12-03T21:26:09.357Z,99625.64
2018-12-03T21:28:38.770Z,99616.05
2018-12-03T21:31:08.186Z,99621.59
2018-12-03T21:33:37.407Z,99622.00
2018-12-03T21:36:06.688Z,99616.33
2018-12-03T21:38:35.990Z,99617.58
2018-12-03T21:41:05.244Z,99612.89
2018-12-03T21:43:34.437Z,99610.83
2018-12-03T21:46:03.637Z,99614.75
2018-12-03T21:48:33.081Z,99611.37
2018-12-03T21:51:02.334Z,99610.43
2018-12-03T21:53:31.576Z,99610.58
2018-12-03T21:56:00.909Z,99614.50
2018-12-03T21:58:30.333Z,99612.62
2018-12-03T22:00:59.733Z,99613.97
2018-12-03T22:03:28.866Z,99615.49
2018-12-03T22:05:58.455Z,99616.38
2018-12-03T22:08:27.813Z,99611.20
2018-12-03T22:10:58.033Z,99614.02
2018-12-03T22:13:27.217Z,99619.62
2018-12-03T22:15:56.720Z,99620.47
2018-12-03T22:18:26.023Z,99620.31
2018-12-03T22:20:55.197Z,99622.94
2018-12-03T22:23:24.482Z,99627.17
2018-12-03T22:25:54.134Z,99625.09
2018-12-03T22:28:23.358Z,99634.63
2018-12-03T22:30:52.931Z,99635.91
2018-12-03T22:33:22.185Z,99635.47
2018-12-03T22:35:51.449Z,99642.91
2018-12-03T22:38:20.756Z,99645.44
2018-12-03T22:40:50.086Z,99648.27
2018-12-03T22:43:19.492Z,99649.61
2018-12-03T22:45:48.872Z,99649.96
2018-12-03T22:48:18.124Z,99652.88
2018-12-03T22:50:47.247Z,99658.45
2018-12-03T22:53:23.617Z,99660.92
2018-12-03T22:55:52.925Z,99649.36
2018-12-03T22:58:22.081Z,99655.77
2018-12-03T23:00:59.373Z,99657.16
2018-12-03T23:03:28.622Z,99653.23
2018-12-03T23:05:57.752Z,99655.36
2018-12-03T23:08:26.970Z,99657.16
2018-12-03T23:10:56.256Z,99662.81
2018-12-03T23:13:25.661Z,99662.76
2018-12-03T23:15:54.842Z,99665.59
2018-12-03T23:18:24.114Z,99659.12
2018-12-03T23:20:53.722Z,99658.63
2018-12-03T23:23:23.149Z,99664.34
2018-12-03T23:25:52.299Z,99663.22
2018-12-03T23:28:21.508Z,99660.13
2018-12-03T23:30:51.133Z,99652.48
2018-12-03T23:33:20.474Z,99660.34
2018-12-03T23:35:50.215Z,99656.27
2018-12-03T23:38:19.488Z,99654.67
2018-12-03T23:40:48.817Z,99658.78
2018-12-03T23:43:18.392Z,99656.66
2018-12-03T23:45:47.628Z,99656.81
2018-12-03T23:48:16.799Z,99657.31
2018-12-03T23:50:46.093Z,99661.41
2018-12-03T23:53:15.249Z,99665.39
2018-12-03T23:55:44.411Z,99663.27
2018-12-03T23:58:13.856Z,99665.12
